PWSweather.com
Personal Weather Stations
Station Observations
TAIGUM
Cashmere, BrisbaneAU 4500

CashmereBrisbaneAU 4500

Lat: -27.2949692, Lon: 152.9343974

Elevation: 125

Station Type: Vantage Pro 2

http://www.brisbaneliveweather.com

Latest ConditionsUpdated 5:45:01 AM GMT+10:10 Sunday, Apr 20, 2014
Currently Today's Max Today's Min Today's Average
Temperature 54.1°F12.3°C 57.9°F14.4°C 54.1°F12.3°C 56.0°F13.3°C
Dew Point 52.9°F11.6°C 55.2°F12.9°C 52.9°F11.6°C 54.0°F12.2°C
Winds Calm Calm Calm Calm - Calm Calm
Wind Gusts -- 2.0 mph3.2 kmh - -
Humidity 95% 95% 91% 93%
Pressure 30.02 in1016.6 mb 30.02 in1016.6 mb 29.99 in1015.6 mb -
Hour Temp Dew Point Humidity Winds Wind Gusts Pressure Precip Precip Rate Daily Precip Total
05:45 AM 54.1°F12.3°C 52.9°F11.6°C 95% Calm Calm -- 30.02 in1016.6 mb 0.00 in0.0 mm 0.00 in/hr0.0 mm/hr 0.00 in0.0 mm
05:30 AM 54.1°F12.3°C 52.9°F11.6°C 95% Calm Calm -- 30.02 in1016.6 mb 0.00 in0.0 mm 0.00 in/hr0.0 mm/hr 0.00 in0.0 mm
05:15 AM 54.3°F12.4°C 52.9°F11.6°C 95% Calm Calm -- 30.02 in1016.6 mb 0.00 in0.0 mm 0.00 in/hr0.0 mm/hr 0.00 in0.0 mm
05:00 AM 54.3°F12.4°C 53.1°F11.7°C 95% Calm Calm -- 30.01 in1016.3 mb 0.00 in0.0 mm 0.00 in/hr0.0 mm/hr 0.00 in0.0 mm
04:45 AM 54.7°F12.6°C 52.9°F11.6°C 94% Calm Calm -- 30.01 in1016.3 mb 0.00 in0.0 mm 0.00 in/hr0.0 mm/hr 0.00 in0.0 mm
04:30 AM 54.7°F12.6°C 53.1°F11.7°C 94% Calm Calm -- 30.00 in1015.9 mb 0.00 in0.0 mm 0.00 in/hr0.0 mm/hr 0.00 in0.0 mm
04:15 AM 54.9°F12.7°C 53.2°F11.8°C 94% Calm Calm -- 30.00 in1015.9 mb 0.00 in0.0 mm 0.00 in/hr0.0 mm/hr 0.00 in0.0 mm
04:00 AM 55.0°F12.8°C 53.2°F11.8°C 94% Calm Calm -- 30.00 in1015.9 mb 0.00 in0.0 mm 0.00 in/hr0.0 mm/hr 0.00 in0.0 mm
03:45 AM 55.0°F12.8°C 53.1°F11.7°C 93% Calm Calm -- 30.00 in1015.9 mb 0.00 in0.0 mm 0.00 in/hr0.0 mm/hr 0.00 in0.0 mm
03:30 AM 55.4°F13.0°C 53.4°F11.9°C 93% Calm Calm -- 29.99 in1015.6 mb 0.00 in0.0 mm 0.00 in/hr0.0 mm/hr 0.00 in0.0 mm
03:15 AM 55.6°F13.1°C 53.6°F12.0°C 93% Calm Calm -- 30.00 in1015.9 mb 0.00 in0.0 mm 0.00 in/hr0.0 mm/hr 0.00 in0.0 mm
03:00 AM 55.9°F13.3°C 53.8°F12.1°C 92% Calm Calm -- 29.99 in1015.6 mb 0.00 in0.0 mm 0.00 in/hr0.0 mm/hr 0.00 in0.0 mm
02:45 AM 56.3°F13.5°C 54.0°F12.2°C 92% Calm Calm -- 29.99 in1015.6 mb 0.00 in0.0 mm 0.00 in/hr0.0 mm/hr 0.00 in0.0 mm
02:30 AM 56.7°F13.7°C 54.3°F12.4°C 92% Calm Calm -- 29.99 in1015.6 mb 0.00 in0.0 mm 0.00 in/hr0.0 mm/hr 0.00 in0.0 mm
02:15 AM 56.8°F13.8°C 54.7°F12.6°C 92% Calm Calm -- 29.99 in1015.6 mb 0.00 in0.0 mm 0.00 in/hr0.0 mm/hr 0.00 in0.0 mm
02:00 AM 57.0°F13.9°C 54.9°F12.7°C 92% Calm Calm 2.0 mph3.2 kmh 29.99 in1015.6 mb 0.00 in0.0 mm 0.00 in/hr0.0 mm/hr 0.00 in0.0 mm
01:45 AM 57.4°F14.1°C 55.0°F12.8°C 92% Calm Calm 1.0 mph1.6 kmh 30.00 in1015.9 mb 0.00 in0.0 mm 0.00 in/hr0.0 mm/hr 0.00 in0.0 mm
01:30 AM 57.2°F14.0°C 54.9°F12.7°C 92% Calm Calm 1.0 mph1.6 kmh 30.00 in1015.9 mb 0.00 in0.0 mm 0.00 in/hr0.0 mm/hr 0.00 in0.0 mm
01:15 AM 57.4°F14.1°C 55.0°F12.8°C 92% Calm Calm -- 30.00 in1015.9 mb 0.00 in0.0 mm 0.00 in/hr0.0 mm/hr 0.00 in0.0 mm
01:00 AM 57.4°F14.1°C 55.0°F12.8°C 92% Calm Calm -- 30.01 in1016.3 mb 0.00 in0.0 mm 0.00 in/hr0.0 mm/hr 0.00 in0.0 mm
12:45 AM 57.4°F14.1°C 55.0°F12.8°C 92% Calm Calm -- 30.01 in1016.3 mb 0.00 in0.0 mm 0.00 in/hr0.0 mm/hr 0.00 in0.0 mm
12:30 AM 57.6°F14.2°C 54.9°F12.7°C 91% Calm Calm -- 30.01 in1016.3 mb 0.00 in0.0 mm 0.00 in/hr0.0 mm/hr 0.00 in0.0 mm
12:15 AM 57.7°F14.3°C 55.0°F12.8°C 91% Calm Calm -- 30.01 in1016.3 mb 0.00 in0.0 mm 0.00 in/hr0.0 mm/hr 0.00 in0.0 mm
12:00 AM 57.9°F14.4°C 55.2°F12.9°C 91% Calm Calm -- 30.01 in1016.3 mb 0.00 in0.0 mm 0.00 in/hr0.0 mm/hr 0.00 in0.0 mm